Time;durP1;ratioP1;P1;durP2;ratioP2;P2;SDS_P1;SDS_P2;PMS_P1;PMS_P2;Temp;Humidity;BMP_temperature;BMP_pressure;BME280_temperature;BME280_humidity;BME280_pressure;Samples;Min_cycle;Max_cycle;Signal;HPM_P1;HPM_P2
2023/05/11 00:00:04;;;;;;;51.20;19.50;;;11.60;99.90;;;;;;5024507;28;20584;-48
2023/05/11 00:02:30;;;;;;;42.37;18.93;;;11.60;99.90;;;;;;5025577;28;20199;-49
2023/05/11 00:04:55;;;;;;;48.40;19.70;;;11.50;99.90;;;;;;5023002;28;20434;-49
2023/05/11 00:07:21;;;;;;;44.33;19.47;;;11.50;99.90;;;;;;5022483;28;20280;-49
2023/05/11 00:09:47;;;;;;;45.70;19.40;;;11.40;99.90;;;;;;5024681;28;20212;-48
2023/05/11 00:12:13;;;;;;;54.60;20.20;;;11.40;99.90;;;;;;5023913;28;20191;-49
2023/05/11 00:14:39;;;;;;;44.90;19.07;;;11.40;99.90;;;;;;5025461;28;20675;-49
2023/05/11 00:17:05;;;;;;;50.00;20.10;;;11.40;99.90;;;;;;5027074;28;20663;-50
2023/05/11 00:19:31;;;;;;;42.63;18.77;;;11.40;99.90;;;;;;5029524;28;20452;-50
2023/05/11 00:21:57;;;;;;;49.33;20.33;;;11.40;99.90;;;;;;5027589;28;20259;-49
2023/05/11 00:24:24;;;;;;;41.40;19.93;;;11.40;99.90;;;;;;5026742;28;20498;-49
2023/05/11 00:26:50;;;;;;;53.20;21.10;;;11.40;99.90;;;;;;5028259;28;20488;-49
2023/05/11 00:29:15;;;;;;;47.70;20.40;;;11.40;99.90;;;;;;5024795;28;20441;-49
2023/05/11 00:31:41;;;;;;;53.13;21.60;;;11.40;99.90;;;;;;5028775;28;20222;-49
2023/05/11 00:34:06;;;;;;;50.07;21.50;;;11.40;99.90;;;;;;5025975;28;20219;-49
2023/05/11 00:36:32;;;;;;;55.73;22.03;;;11.40;99.90;;;;;;5027206;28;20675;-49
2023/05/11 00:38:58;;;;;;;60.10;23.20;;;11.40;99.90;;;;;;5029631;28;20191;-49
2023/05/11 00:41:24;;;;;;;51.83;20.33;;;11.40;99.90;;;;;;5025237;28;20898;-49
2023/05/11 00:43:49;;;;;;;54.83;20.00;;;11.40;99.90;;;;;;5027736;28;20196;-49
2023/05/11 00:46:16;;;;;;;59.37;23.20;;;11.50;99.90;;;;;;5025233;28;20278;-48
2023/05/11 00:48:42;;;;;;;55.47;22.50;;;11.50;99.90;;;;;;5026833;28;20635;-49
2023/05/11 00:51:08;;;;;;;60.40;21.23;;;11.40;99.90;;;;;;5028430;28;20469;-49
2023/05/11 00:53:35;;;;;;;68.90;24.40;;;11.50;99.90;;;;;;5026951;28;20822;-49
2023/05/11 00:56:02;;;;;;;62.07;22.87;;;11.50;99.90;;;;;;5027362;28;20434;-49
2023/05/11 00:58:28;;;;;;;60.67;21.83;;;11.40;99.90;;;;;;5025204;28;20434;-48
2023/05/11 01:00:54;;;;;;;56.47;22.90;;;11.40;99.90;;;;;;5026781;28;20434;-49
2023/05/11 01:03:20;;;;;;;53.60;21.67;;;11.40;99.90;;;;;;5025912;28;20953;-48
2023/05/11 01:05:52;;;;;;;46.10;20.43;;;11.40;99.90;;;;;;5025972;28;20624;-49
2023/05/11 01:08:23;;;;;;;54.20;22.73;;;11.50;99.90;;;;;;5028854;28;20179;-48
2023/05/11 01:10:57;;;;;;;50.60;20.77;;;11.50;99.90;;;;;;5025907;28;20442;-49
2023/05/11 01:13:32;;;;;;;48.60;20.70;;;11.40;99.90;;;;;;5022775;28;20478;-49
2023/05/11 01:16:03;;;;;;;48.67;20.97;;;11.40;99.90;;;;;;5024673;28;20799;-49
2023/05/11 01:18:45;;;;;;;49.50;19.90;;;11.40;99.90;;;;;;5024429;28;20455;-48
2023/05/11 01:21:13;;;;;;;44.17;18.90;;;11.40;99.90;;;;;;5025461;28;20844;-49
2023/05/11 01:23:53;;;;;;;41.33;19.07;;;11.40;99.90;;;;;;5026254;28;20445;-49
2023/05/11 01:26:34;;;;;;;50.80;20.23;;;11.40;99.90;;;;;;5025970;28;20448;-49
2023/05/11 01:29:37;;;;;;;43.30;19.23;;;11.40;99.90;;;;;;5022663;28;20973;-49
2023/05/11 01:32:09;;;;;;;43.17;18.87;;;11.40;99.90;;;;;;5023139;28;20454;-49
2023/05/11 01:34:38;;;;;;;50.97;21.17;;;11.30;99.90;;;;;;5023962;28;20552;-48
2023/05/11 01:37:11;;;;;;;48.27;20.53;;;11.40;99.90;;;;;;5026817;28;20442;-50
2023/05/11 01:39:44;;;;;;;50.33;21.00;;;11.30;99.90;;;;;;5026640;28;20465;-50
2023/05/11 01:42:10;;;;;;;48.60;21.10;;;11.30;99.90;;;;;;5024558;28;20532;-49
2023/05/11 01:44:41;;;;;;;42.03;18.43;;;11.20;99.90;;;;;;5025840;28;20438;-50
2023/05/11 01:47:09;;;;;;;48.77;20.00;;;11.20;99.90;;;;;;5023506;28;20437;-50
2023/05/11 01:49:37;;;;;;;41.20;18.73;;;11.20;99.90;;;;;;5025698;28;20522;-49
2023/05/11 01:52:06;;;;;;;47.13;19.93;;;11.20;99.90;;;;;;5026657;28;20452;-49
2023/05/11 01:54:34;;;;;;;46.03;20.53;;;11.20;99.90;;;;;;5025397;28;20499;-48
2023/05/11 01:57:01;;;;;;;44.40;19.30;;;11.30;99.90;;;;;;5024767;28;20521;-49
2023/05/11 01:59:28;;;;;;;39.23;18.97;;;11.30;99.90;;;;;;5022598;28;20525;-48
2023/05/11 02:01:55;;;;;;;36.77;18.27;;;11.30;99.90;;;;;;5022928;28;20445;-49
2023/05/11 02:04:22;;;;;;;40.80;18.97;;;11.20;99.90;;;;;;5024849;28;20529;-49
2023/05/11 02:06:48;;;;;;;43.57;19.00;;;11.20;99.90;;;;;;5021780;28;20438;-49
2023/05/11 02:09:18;;;;;;;37.20;17.30;;;11.20;99.90;;;;;;5025945;28;20449;-49
2023/05/11 02:11:46;;;;;;;37.17;18.00;;;11.20;99.90;;;;;;5023381;28;20439;-48
2023/05/11 02:14:13;;;;;;;34.60;16.57;;;11.20;99.90;;;;;;5024018;28;20482;-49
2023/05/11 02:16:39;;;;;;;35.13;16.20;;;11.20;99.90;;;;;;5026392;28;20434;-49
2023/05/11 02:19:06;;;;;;;37.70;17.80;;;11.20;99.90;;;;;;5022859;28;20442;-50
2023/05/11 02:21:33;;;;;;;40.17;17.80;;;11.30;99.90;;;;;;5023837;28;20445;-49
2023/05/11 02:24:02;;;;;;;39.33;18.50;;;11.20;99.90;;;;;;5023768;28;20942;-49
2023/05/11 02:26:28;;;;;;;38.37;17.13;;;11.20;99.90;;;;;;5023768;28;20605;-49
2023/05/11 02:28:54;;;;;;;35.50;16.73;;;11.10;99.90;;;;;;5023523;28;20533;-49
2023/05/11 02:31:28;;;;;;;37.97;18.10;;;11.20;99.90;;;;;;5023477;28;20196;-48
2023/05/11 02:34:03;;;;;;;36.73;18.00;;;11.10;99.90;;;;;;5023232;28;20474;-49
2023/05/11 02:36:29;;;;;;;38.87;17.30;;;11.10;99.90;;;;;;5024464;28;20430;-49
2023/05/11 02:39:02;;;;;;;38.80;17.93;;;11.10;99.90;;;;;;5023847;28;20443;-49
2023/05/11 02:41:29;;;;;;;35.77;16.80;;;11.20;99.90;;;;;;5022038;28;20434;-48
2023/05/11 02:43:59;;;;;;;34.60;16.63;;;11.20;99.90;;;;;;5022070;28;20438;-48
2023/05/11 02:46:30;;;;;;;33.47;17.37;;;11.20;99.90;;;;;;5023777;28;20448;-49
2023/05/11 02:48:59;;;;;;;32.97;15.60;;;11.30;99.90;;;;;;5023751;28;20426;-48
2023/05/11 02:51:34;;;;;;;34.97;16.43;;;11.20;99.90;;;;;;5022292;28;20477;-49
2023/05/11 02:54:00;;;;;;;31.57;16.70;;;11.30;99.90;;;;;;5024910;28;20488;-49
2023/05/11 02:56:26;;;;;;;34.77;17.67;;;11.30;99.90;;;;;;5022626;28;20428;-48
2023/05/11 02:58:51;;;;;;;39.83;16.93;;;11.20;99.90;;;;;;5022301;28;20431;-49
2023/05/11 03:01:18;;;;;;;34.77;17.50;;;11.20;99.90;;;;;;5024342;28;20541;-49
2023/05/11 03:03:43;;;;;;;40.93;19.20;;;11.20;99.90;;;;;;5023588;28;20203;-50
2023/05/11 03:06:09;;;;;;;38.17;17.57;;;11.20;99.90;;;;;;5024020;28;20461;-49
2023/05/11 03:08:35;;;;;;;37.60;17.90;;;11.20;99.90;;;;;;5024216;28;20559;-48
2023/05/11 03:11:02;;;;;;;38.30;17.87;;;11.30;99.90;;;;;;5023428;28;20199;-49
2023/05/11 03:13:28;;;;;;;42.43;18.70;;;11.30;99.90;;;;;;5023657;28;20974;-49
2023/05/11 03:15:54;;;;;;;41.40;19.13;;;11.20;99.90;;;;;;5025020;28;20439;-48
2023/05/11 03:18:21;;;;;;;40.30;18.60;;;11.10;99.90;;;;;;5024407;28;21045;-48
2023/05/11 03:20:48;;;;;;;35.50;17.10;;;11.10;99.90;;;;;;5023450;28;20457;-49
2023/05/11 03:23:16;;;;;;;37.90;18.27;;;11.10;99.90;;;;;;5022203;28;20446;-49
2023/05/11 03:25:43;;;;;;;39.63;18.40;;;11.10;99.90;;;;;;5019310;28;20446;-49
2023/05/11 03:28:09;;;;;;;38.40;18.83;;;11.10;99.90;;;;;;5022888;28;20431;-50
2023/05/11 03:30:36;;;;;;;40.43;17.57;;;11.10;99.90;;;;;;5023728;28;20529;-48
2023/05/11 03:33:02;;;;;;;41.20;19.40;;;11.10;99.90;;;;;;5023915;28;20443;-49
2023/05/11 03:35:30;;;;;;;41.20;17.40;;;11.10;99.90;;;;;;5023329;28;20509;-49
2023/05/11 03:37:57;;;;;;;39.50;18.00;;;11.20;99.90;;;;;;5025459;28;20234;-48
2023/05/11 03:40:23;;;;;;;40.60;19.30;;;11.20;99.90;;;;;;5022141;28;20438;-49
2023/05/11 03:42:52;;;;;;;41.50;18.93;;;11.10;99.90;;;;;;5024017;28;20514;-49
2023/05/11 03:45:20;;;;;;;38.00;18.30;;;11.10;99.90;;;;;;5024738;28;20460;-49
2023/05/11 03:47:49;;;;;;;40.47;18.30;;;11.10;99.90;;;;;;5022688;28;20482;-48
2023/05/11 03:50:16;;;;;;;34.53;17.17;;;11.10;99.90;;;;;;5025329;28;20564;-49
2023/05/11 03:52:42;;;;;;;39.37;19.00;;;11.10;99.90;;;;;;5025731;28;20449;-48
2023/05/11 03:55:09;;;;;;;33.60;15.90;;;11.10;99.90;;;;;;5028365;28;20481;-49
2023/05/11 03:57:35;;;;;;;34.00;16.33;;;11.20;99.90;;;;;;5026658;28;20437;-48
2023/05/11 04:00:00;;;;;;;37.73;16.37;;;11.10;99.90;;;;;;5026243;28;20533;-48
2023/05/11 04:02:26;;;;;;;35.47;16.67;;;11.10;99.90;;;;;;5027326;28;20561;-48
2023/05/11 04:04:52;;;;;;;36.23;16.43;;;11.00;99.90;;;;;;5026040;28;20639;-49
2023/05/11 04:07:18;;;;;;;38.50;17.90;;;11.10;99.90;;;;;;5027271;28;20192;-48
2023/05/11 04:09:43;;;;;;;38.63;17.97;;;11.10;99.90;;;;;;5030400;28;20192;-49
2023/05/11 04:12:09;;;;;;;36.93;17.87;;;11.10;99.90;;;;;;5025383;28;20976;-51
2023/05/11 04:14:35;;;;;;;31.97;15.00;;;11.10;99.90;;;;;;5025129;28;20310;-49
2023/05/11 04:17:00;;;;;;;27.23;13.00;;;11.20;99.90;;;;;;5029265;28;20203;-49
2023/05/11 04:19:26;;;;;;;24.23;12.73;;;11.30;99.90;;;;;;5025195;28;20196;-48
2023/05/11 04:21:52;;;;;;;26.53;12.70;;;11.20;99.90;;;;;;5027349;28;20195;-48
2023/05/11 04:24:17;;;;;;;25.93;12.83;;;11.30;99.90;;;;;;5026682;28;20183;-49
2023/05/11 04:26:43;;;;;;;31.33;15.23;;;11.30;99.90;;;;;;5024894;28;20555;-48
2023/05/11 04:29:09;;;;;;;30.77;16.40;;;11.30;99.90;;;;;;5027628;28;20184;-49
2023/05/11 04:31:34;;;;;;;31.20;14.67;;;11.30;99.90;;;;;;5025618;28;20199;-48
2023/05/11 04:34:00;;;;;;;29.43;15.23;;;11.30;99.90;;;;;;5025966;28;20215;-49
2023/05/11 04:36:26;;;;;;;28.73;15.00;;;11.30;99.90;;;;;;5026484;28;20215;-49
2023/05/11 04:38:52;;;;;;;31.57;14.47;;;11.30;99.90;;;;;;5025664;28;20280;-50
2023/05/11 04:41:17;;;;;;;33.97;15.60;;;11.30;99.90;;;;;;5026815;28;20187;-48
2023/05/11 04:43:43;;;;;;;36.33;15.90;;;11.40;99.90;;;;;;5026059;28;20538;-49
2023/05/11 04:46:09;;;;;;;31.70;17.10;;;11.40;99.90;;;;;;5025406;28;20198;-49
2023/05/11 04:48:34;;;;;;;34.70;16.00;;;11.40;99.90;;;;;;5025951;28;20191;-49
2023/05/11 04:51:03;;;;;;;36.13;16.07;;;11.50;99.90;;;;;;5025798;28;20810;-48
2023/05/11 04:53:29;;;;;;;27.80;15.10;;;11.50;99.90;;;;;;5025848;28;20219;-48
2023/05/11 04:55:54;;;;;;;33.13;16.37;;;11.60;99.90;;;;;;5025654;28;20497;-50
2023/05/11 04:58:20;;;;;;;32.87;16.27;;;11.60;99.90;;;;;;5027310;28;20195;-49
2023/05/11 05:00:45;;;;;;;31.90;15.60;;;11.60;99.90;;;;;;5025084;28;20187;-49
2023/05/11 05:03:11;;;;;;;30.97;16.00;;;11.60;99.90;;;;;;5026477;28;20223;-49
2023/05/11 05:05:36;;;;;;;33.93;16.17;;;11.60;99.90;;;;;;5026249;28;20539;-49
2023/05/11 05:08:02;;;;;;;30.47;15.93;;;11.70;99.90;;;;;;5023827;28;20200;-49
2023/05/11 05:10:28;;;;;;;34.13;14.10;;;11.70;99.90;;;;;;5026604;28;20203;-49
2023/05/11 05:12:53;;;;;;;32.07;15.93;;;11.80;99.90;;;;;;5024861;28;20662;-50
2023/05/11 05:15:20;;;;;;;29.77;14.13;;;11.80;99.90;;;;;;5026871;28;20223;-49
2023/05/11 05:17:45;;;;;;;33.97;16.40;;;11.80;99.90;;;;;;5023544;28;20223;-49
2023/05/11 05:20:11;;;;;;;28.80;14.73;;;11.80;99.90;;;;;;5025935;28;20481;-50
2023/05/11 05:22:37;;;;;;;32.23;16.57;;;11.80;99.90;;;;;;5025082;28;20188;-49
2023/05/11 05:25:02;;;;;;;29.27;14.87;;;11.80;99.90;;;;;;5025353;28;20203;-49
2023/05/11 05:27:28;;;;;;;27.67;13.47;;;11.70;99.90;;;;;;5025260;28;20247;-49
2023/05/11 05:29:54;;;;;;;29.43;14.97;;;11.70;99.90;;;;;;5026174;28;20195;-50
2023/05/11 05:32:20;;;;;;;30.03;13.80;;;11.70;99.90;;;;;;5026781;28;20438;-49
2023/05/11 05:34:48;;;;;;;30.07;14.90;;;11.80;99.90;;;;;;5024317;28;20282;-49
2023/05/11 05:37:13;;;;;;;30.13;15.80;;;11.80;99.90;;;;;;5026376;28;20238;-49
2023/05/11 05:39:39;;;;;;;33.17;16.23;;;11.80;99.90;;;;;;5025603;28;20462;-49
2023/05/11 05:42:05;;;;;;;31.90;15.60;;;11.80;99.90;;;;;;5026920;28;20197;-49
2023/05/11 05:44:31;;;;;;;31.90;16.90;;;11.80;99.90;;;;;;5028162;28;20290;-49
2023/05/11 05:46:57;;;;;;;30.10;15.23;;;11.80;99.90;;;;;;5025413;28;20856;-50
2023/05/11 05:49:22;;;;;;;30.83;15.10;;;11.90;99.90;;;;;;5022540;28;20791;-49
2023/05/11 05:51:49;;;;;;;31.83;14.60;;;11.90;99.90;;;;;;5022161;28;20198;-48
2023/05/11 05:54:15;;;;;;;23.17;13.83;;;11.90;99.90;;;;;;5024909;28;20227;-49
2023/05/11 05:56:40;;;;;;;25.23;13.60;;;11.90;99.90;;;;;;5024098;28;20446;-49
2023/05/11 05:59:09;;;;;;;26.13;13.63;;;11.90;99.90;;;;;;5025479;28;20199;-49
2023/05/11 06:01:36;;;;;;;29.57;15.53;;;12.00;99.90;;;;;;5025228;28;20222;-47
2023/05/11 06:04:02;;;;;;;28.47;17.23;;;12.00;99.90;;;;;;5023741;28;20459;-48
2023/05/11 06:06:28;;;;;;;32.50;15.90;;;12.10;99.90;;;;;;5026139;28;20442;-49
2023/05/11 06:08:53;;;;;;;28.30;14.80;;;12.10;99.90;;;;;;5024701;28;20444;-48
2023/05/11 06:11:20;;;;;;;30.50;15.90;;;12.10;99.90;;;;;;5022671;28;20219;-48
2023/05/11 06:13:46;;;;;;;28.87;15.60;;;12.20;99.90;;;;;;5022769;28;20232;-49
2023/05/11 06:16:11;;;;;;;25.00;14.77;;;12.20;99.90;;;;;;5026394;28;20457;-50
2023/05/11 06:18:37;;;;;;;27.43;14.60;;;12.30;99.90;;;;;;5027440;28;20537;-49
2023/05/11 06:21:02;;;;;;;30.10;16.17;;;12.30;99.90;;;;;;5024071;28;20282;-49
2023/05/11 06:23:28;;;;;;;26.90;15.53;;;12.40;99.90;;;;;;5021904;28;20192;-49
2023/05/11 06:25:54;;;;;;;30.40;16.77;;;12.40;99.90;;;;;;5026514;28;20192;-48
2023/05/11 06:28:23;;;;;;;28.43;15.90;;;12.50;99.90;;;;;;5024736;28;20223;-49
2023/05/11 06:30:49;;;;;;;29.50;16.23;;;12.50;99.90;;;;;;5027054;28;20202;-48
2023/05/11 06:33:14;;;;;;;30.30;16.40;;;12.50;99.90;;;;;;5024706;28;20438;-49
2023/05/11 06:35:40;;;;;;;31.63;17.30;;;12.60;99.90;;;;;;5022231;28;20184;-50
2023/05/11 06:38:05;;;;;;;29.92;17.75;;;12.60;99.90;;;;;;5016647;28;20457;-48
2023/05/11 06:40:31;;;;;;;27.00;17.47;;;12.60;99.90;;;;;;5015913;28;20551;-49
2023/05/11 06:42:56;;;;;;;33.87;18.67;;;12.70;99.90;;;;;;5019709;28;20211;-48
2023/05/11 06:45:22;;;;;;;35.43;18.10;;;12.70;99.90;;;;;;5020141;28;20282;-49
2023/05/11 06:47:48;;;;;;;35.90;19.17;;;12.70;99.90;;;;;;5020710;28;20219;-48
2023/05/11 06:50:13;;;;;;;34.67;18.70;;;12.70;99.90;;;;;;5003347;28;22042;-49
2023/05/11 06:52:39;;;;;;;36.20;18.17;;;12.70;99.90;;;;;;5025997;28;20187;-49
2023/05/11 06:55:05;;;;;;;32.13;16.60;;;12.80;99.90;;;;;;5024940;28;20203;-50
2023/05/11 06:57:30;;;;;;;27.20;14.77;;;12.80;99.90;;;;;;5024208;28;20191;-51
2023/05/11 06:59:56;;;;;;;25.57;13.00;;;12.80;99.90;;;;;;5025163;28;20449;-49
2023/05/11 07:02:22;;;;;;;27.80;14.00;;;12.80;99.90;;;;;;5024089;28;20590;-49
2023/05/11 07:04:47;;;;;;;26.47;12.57;;;12.80;99.90;;;;;;5025435;28;20191;-50
2023/05/11 07:07:13;;;;;;;24.33;12.30;;;12.80;99.90;;;;;;5020342;28;20184;-51
2023/05/11 07:09:38;;;;;;;24.13;13.37;;;12.90;99.90;;;;;;5024701;28;20635;-51
2023/05/11 07:12:04;;;;;;;23.53;12.23;;;13.00;99.90;;;;;;5023896;28;20200;-50
2023/05/11 07:14:30;;;;;;;24.30;11.17;;;13.00;99.90;;;;;;5024577;28;20237;-51
2023/05/11 07:16:55;;;;;;;24.05;12.38;;;13.10;99.90;;;;;;5023308;28;20419;-49
2023/05/11 07:19:21;;;;;;;21.37;11.40;;;13.20;99.90;;;;;;5023499;28;20672;-51
2023/05/11 07:21:46;;;;;;;25.60;14.00;;;13.20;99.90;;;;;;5025706;28;20276;-50
2023/05/11 07:24:12;;;;;;;29.70;16.13;;;13.30;99.90;;;;;;5022177;28;20191;-50
2023/05/11 07:26:38;;;;;;;21.27;11.97;;;13.30;99.90;;;;;;5020408;28;20275;-50
2023/05/11 07:29:03;;;;;;;24.30;11.20;;;13.40;99.90;;;;;;5021521;28;20247;-50
2023/05/11 07:31:29;;;;;;;24.30;11.27;;;13.40;99.90;;;;;;5024586;28;20523;-50
2023/05/11 07:33:55;;;;;;;22.07;12.00;;;13.40;99.90;;;;;;5022911;28;20247;-50
2023/05/11 07:36:21;;;;;;;21.60;12.00;;;13.50;99.90;;;;;;5024602;28;20199;-50
2023/05/11 07:38:46;;;;;;;29.60;13.60;;;13.60;99.90;;;;;;5023156;28;20434;-50
2023/05/11 07:41:12;;;;;;;25.27;12.57;;;13.70;99.90;;;;;;5023886;28;20195;-50
2023/05/11 07:43:38;;;;;;;23.70;11.43;;;13.70;99.90;;;;;;5022106;28;20236;-50
2023/05/11 07:46:03;;;;;;;25.07;12.57;;;13.70;99.90;;;;;;5022192;28;20191;-49
2023/05/11 07:48:29;;;;;;;24.70;12.30;;;13.80;99.90;;;;;;5024724;28;20549;-50
2023/05/11 07:50:54;;;;;;;24.80;11.30;;;13.90;99.90;;;;;;5021705;28;20238;-50
2023/05/11 07:53:20;;;;;;;21.80;11.50;;;14.00;99.90;;;;;;5024968;28;20652;-49
2023/05/11 07:55:46;;;;;;;21.70;11.03;;;14.00;99.90;;;;;;5021968;28;20187;-51
2023/05/11 07:58:11;;;;;;;29.57;12.90;;;14.00;99.90;;;;;;5026349;28;20191;-50
2023/05/11 08:00:37;;;;;;;22.67;11.50;;;14.20;99.90;;;;;;5027669;28;20194;-50
2023/05/11 08:03:03;;;;;;;25.17;12.30;;;14.20;99.90;;;;;;5031838;28;20278;-50
2023/05/11 08:05:29;;;;;;;24.83;12.03;;;14.30;99.90;;;;;;5022804;28;20180;-50
2023/05/11 08:07:55;;;;;;;23.07;12.80;;;14.30;99.90;;;;;;5021516;28;20628;-50
2023/05/11 08:10:20;;;;;;;22.30;11.80;;;14.30;93.20;;;;;;5031886;28;20507;-50
2023/05/11 08:12:46;;;;;;;22.70;11.80;;;14.30;68.90;;;;;;5029463;28;20585;-50
2023/05/11 08:15:11;;;;;;;24.37;12.43;;;14.30;92.60;;;;;;5015120;28;20216;-50
2023/05/11 08:17:37;;;;;;;25.57;12.77;;;14.40;91.40;;;;;;5031703;28;20241;-50
2023/05/11 08:20:05;;;;;;;29.30;13.87;;;14.40;80.20;;;;;;5031803;28;21280;-50
2023/05/11 08:22:30;;;;;;;25.47;12.00;;;14.40;68.90;;;;;;5031534;28;20219;-51
2023/05/11 08:24:56;;;;;;;29.43;14.33;;;14.50;89.80;;;;;;5031451;28;20470;-50
2023/05/11 08:27:22;;;;;;;30.03;13.50;;;14.50;99.90;;;;;;5031839;28;20226;-50
2023/05/11 08:29:47;;;;;;;27.07;13.00;;;14.60;94.60;;;;;;5029166;28;20196;-50
2023/05/11 08:32:13;;;;;;;29.27;12.93;;;14.70;99.90;;;;;;5015543;28;20660;-50
2023/05/11 08:34:38;;;;;;;23.53;11.77;;;14.80;92.40;;;;;;5032338;28;20214;-50
2023/05/11 08:37:04;;;;;;;24.20;11.60;;;14.80;9.80;;;;;;5035319;28;20180;-50
2023/05/11 08:39:32;;;;;;;25.50;13.53;;;14.90;23.80;;;;;;5035653;28;20275;-50
2023/05/11 08:42:01;;;;;;;27.13;12.87;;;15.10;1.00;;;;;;5035608;28;20523;-50
2023/05/11 08:44:28;;;;;;;26.93;13.17;;;15.10;1.00;;;;;;5035498;28;20753;-50
2023/05/11 08:46:57;;;;;;;26.13;13.07;;;15.20;1.00;;;;;;5030280;28;20436;-50
2023/05/11 08:49:23;;;;;;;26.85;14.32;;;15.30;1.00;;;;;;5026458;28;20492;-53
2023/05/11 08:51:48;;;;;;;24.33;13.17;;;15.20;1.00;;;;;;4976268;28;20172;-52
2023/05/11 08:54:14;;;;;;;26.03;13.77;;;15.30;1.00;;;;;;5013109;28;20220;-51
2023/05/11 08:56:41;;;;;;;28.37;14.70;;;15.30;1.00;;;;;;5015760;28;20613;-50
2023/05/11 08:59:07;;;;;;;26.27;13.87;;;15.20;1.00;;;;;;5024753;28;20439;-50
2023/05/11 09:01:35;;;;;;;27.00;13.00;;;15.10;1.00;;;;;;5024119;28;20436;-50
2023/05/11 09:04:02;;;;;;;25.70;13.00;;;15.00;1.00;;;;;;5024291;28;20447;-51
2023/05/11 09:06:29;;;;;;;22.77;12.83;;;14.90;1.00;;;;;;5028494;28;20439;-51
2023/05/11 09:08:56;;;;;;;27.30;14.07;;;14.80;1.00;;;;;;5026292;28;20589;-51
2023/05/11 09:11:23;;;;;;;24.50;13.13;;;14.70;1.00;;;;;;5025193;28;20577;-50
2023/05/11 09:13:49;;;;;;;30.50;15.23;;;14.60;20.60;;;;;;5023543;28;20484;-50
2023/05/11 09:16:15;;;;;;;23.40;13.67;;;14.50;67.50;;;;;;5026034;28;20447;-50
2023/05/11 09:18:51;;;;;;;29.00;14.07;;;14.50;99.90;;;;;;5026278;28;20449;-51
2023/05/11 09:21:18;;;;;;;24.60;13.20;;;14.50;99.90;;;;;;5026113;28;20213;-51
2023/05/11 09:23:43;;;;;;;22.97;11.97;;;14.50;99.90;;;;;;5024856;28;20439;-51
2023/05/11 09:26:16;;;;;;;25.50;13.70;;;14.50;99.90;;;;;;5026473;28;20426;-50
2023/05/11 09:28:49;;;;;;;25.90;13.50;;;14.50;99.90;;;;;;5024764;28;20287;-47
2023/05/11 09:31:38;;;;;;;18.63;11.00;;;14.40;99.90;;;;;;5024800;28;20515;-50
2023/05/11 09:34:21;;;;;;;20.43;11.37;;;14.50;99.90;;;;;;5024785;28;20574;-53
2023/05/11 09:36:49;;;;;;;21.03;10.67;;;14.50;99.90;;;;;;5022803;28;20439;-49
2023/05/11 09:39:18;;;;;;;20.50;11.37;;;14.40;99.90;;;;;;5025986;28;20447;-50
2023/05/11 09:41:44;;;;;;;23.40;12.57;;;14.40;99.90;;;;;;5024226;28;20785;-50
2023/05/11 09:44:13;;;;;;;20.30;11.63;;;14.40;99.90;;;;;;5027970;28;20777;-50
2023/05/11 09:46:41;;;;;;;22.40;12.40;;;14.40;99.90;;;;;;5025158;28;20482;-49
2023/05/11 09:49:07;;;;;;;24.73;13.00;;;14.40;99.90;;;;;;5025854;28;20517;-50
2023/05/11 09:51:36;;;;;;;28.37;13.93;;;14.40;99.90;;;;;;5025185;28;20832;-49
2023/05/11 09:54:15;;;;;;;25.50;13.80;;;14.40;99.90;;;;;;5024918;28;20479;-50
2023/05/11 09:56:43;;;;;;;26.47;12.90;;;14.30;99.90;;;;;;5024446;28;20462;-52
2023/05/11 09:59:11;;;;;;;25.77;13.00;;;14.30;99.90;;;;;;5028000;28;20920;-49
2023/05/11 10:01:37;;;;;;;24.80;13.20;;;14.30;99.90;;;;;;5023664;28;20981;-50
2023/05/11 10:04:03;;;;;;;24.80;13.37;;;14.30;99.90;;;;;;5022794;28;20518;-49
2023/05/11 10:06:53;;;;;;;21.77;13.20;;;14.20;99.90;;;;;;5023974;28;20194;-51
2023/05/11 10:09:24;;;;;;;24.83;13.30;;;14.10;99.90;;;;;;5023699;28;20457;-49
2023/05/11 10:11:51;;;;;;;26.47;14.10;;;13.90;99.90;;;;;;5025973;28;20518;-50
2023/05/11 10:14:18;;;;;;;24.47;12.87;;;14.00;99.90;;;;;;5023821;28;20486;-49
2023/05/11 10:16:46;;;;;;;25.03;14.30;;;14.10;99.90;;;;;;5024803;28;20437;-51
2023/05/11 10:19:12;;;;;;;28.33;15.13;;;14.30;99.90;;;;;;5025786;28;20933;-49
2023/05/11 10:21:38;;;;;;;29.20;16.02;;;14.40;99.90;;;;;;5026596;28;20413;-49
2023/05/11 10:24:05;;;;;;;29.05;15.70;;;14.60;99.90;;;;;;5032366;28;20748;-48
2023/05/11 10:26:31;;;;;;;31.63;15.17;;;14.90;99.90;;;;;;5030346;28;20312;-48
2023/05/11 10:28:59;;;;;;;29.23;15.40;;;15.10;99.90;;;;;;5029171;28;20422;-49
2023/05/11 10:31:25;;;;;;;24.80;13.87;;;15.30;99.90;;;;;;5033227;28;20896;-48
2023/05/11 10:33:52;;;;;;;27.53;14.60;;;15.50;99.90;;;;;;5033254;28;20478;-48
2023/05/11 10:36:17;;;;;;;28.43;14.90;;;15.70;99.90;;;;;;5025420;28;20446;-49
2023/05/11 10:38:43;;;;;;;27.90;14.93;;;15.90;99.90;;;;;;5027198;28;20850;-50
2023/05/11 10:41:38;;;;;;;28.33;16.08;;;15.90;99.90;;;;;;5017913;28;20431;-49
2023/05/11 10:44:25;;;;;;;27.58;16.45;;;15.80;99.90;;;;;;5030065;28;20499;-48
2023/05/11 10:47:24;;;;;;;27.10;14.90;;;15.70;91.90;;;;;;5031538;28;20194;-49
2023/05/11 10:50:05;;;;;;;31.87;18.20;;;15.60;88.30;;;;;;5033288;28;20472;-48
2023/05/11 10:52:37;;;;;;;26.73;16.60;;;15.80;99.90;;;;;;5030351;28;20448;-49
2023/05/11 10:55:16;;;;;;;22.40;12.90;;;15.90;97.70;;;;;;5026276;28;20476;-49
2023/05/11 10:58:09;;;;;;;22.80;13.50;;;15.80;1.00;;;;;;5023377;28;20440;-48
2023/05/11 11:01:17;;;;;;;23.90;14.20;;;15.80;1.00;;;;;;5023639;28;20449;-48
2023/05/11 11:03:56;;;;;;;23.90;13.47;;;15.70;1.00;;;;;;5020431;28;20459;-49
2023/05/11 11:06:27;;;;;;;24.13;14.07;;;15.70;31.10;;;;;;5023092;28;20433;-49
2023/05/11 11:08:57;;;;;;;24.03;13.17;;;15.70;62.00;;;;;;5024086;28;20442;-49
2023/05/11 11:11:34;;;;;;;22.50;12.93;;;15.80;99.90;;;;;;5023673;28;20975;-49
2023/05/11 11:14:02;;;;;;;24.57;13.93;;;15.90;99.90;;;;;;5024238;28;20476;-49
2023/05/11 11:16:29;;;;;;;20.30;13.20;;;16.20;99.90;;;;;;5024689;28;20439;-49
2023/05/11 11:19:31;;;;;;;18.63;11.47;;;16.30;73.20;;;;;;5028716;28;20487;-49
2023/05/11 11:21:58;;;;;;;16.40;11.17;;;16.40;1.00;;;;;;5021826;28;20901;-50
2023/05/11 11:24:44;;;;;;;16.73;11.27;;;16.40;1.00;;;;;;5022784;28;20828;-50
2023/05/11 11:27:11;;;;;;;16.20;10.70;;;16.40;1.00;;;;;;5021181;28;20502;-50
2023/05/11 11:29:38;;;;;;;17.30;10.73;;;16.60;1.00;;;;;;5024230;28;20437;-50
2023/05/11 11:32:25;;;;;;;15.90;11.10;;;16.80;1.00;;;;;;5021601;28;20441;-50
2023/05/11 11:34:50;;;;;;;16.27;10.83;;;17.10;1.00;;;;;;5022141;28;20477;-51
2023/05/11 11:37:17;;;;;;;15.23;9.80;;;17.20;1.00;;;;;;5023470;28;20474;-50
2023/05/11 11:39:43;;;;;;;19.30;10.90;;;17.10;99.90;;;;;;5021306;28;20188;-50
2023/05/11 11:42:13;;;;;;;16.23;10.50;;;16.90;1.60;;;;;;5023963;28;20963;-50
2023/05/11 11:44:40;;;;;;;17.10;11.63;;;16.70;99.90;;;;;;5021428;28;21187;-49
2023/05/11 11:47:14;;;;;;;25.40;12.33;;;16.50;99.90;;;;;;5022171;28;20432;-50
2023/05/11 11:49:42;;;;;;;16.50;10.60;;;16.40;99.90;;;;;;5020571;28;20642;-50
2023/05/11 11:52:30;;;;;;;18.67;10.90;;;16.50;1.00;;;;;;5021175;28;20438;-50
2023/05/11 11:55:00;;;;;;;19.07;12.23;;;16.70;1.00;;;;;;5023544;28;20491;-50
2023/05/11 11:57:31;;;;;;;19.40;11.30;;;16.70;1.00;;;;;;5024883;28;20447;-50
2023/05/11 12:00:09;;;;;;;15.67;11.13;;;16.70;1.00;;;;;;5024123;28;20448;-49
2023/05/11 12:02:42;;;;;;;17.80;12.03;;;16.60;1.00;;;;;;5021650;28;20436;-50
2023/05/11 12:05:12;;;;;;;14.83;10.33;;;16.60;1.00;;;;;;5022375;28;20441;-50
2023/05/11 12:07:42;;;;;;;16.60;10.93;;;16.40;1.00;;;;;;5023325;28;20452;-51
2023/05/11 12:10:10;;;;;;;16.30;10.67;;;16.40;1.00;;;;;;5022647;28;20449;-49
2023/05/11 12:12:37;;;;;;;16.40;11.37;;;16.40;1.00;;;;;;5031594;28;20440;-49
2023/05/11 12:15:05;;;;;;;16.33;11.03;;;16.50;1.00;;;;;;5030496;28;21660;-49
2023/05/11 12:17:33;;;;;;;16.00;10.80;;;16.70;1.00;;;;;;5027600;28;20451;-49
2023/05/11 12:20:13;;;;;;;15.00;10.67;;;16.90;1.00;;;;;;5026713;28;20438;-50
2023/05/11 12:22:39;;;;;;;15.40;9.80;;;17.20;99.90;;;;;;5025725;28;20549;-51
2023/05/11 12:25:05;;;;;;;14.60;9.70;;;17.40;99.90;;;;;;5026902;28;21010;-50
2023/05/11 12:27:31;;;;;;;16.03;10.53;;;17.40;99.90;;;;;;5025961;28;20193;-50
2023/05/11 12:29:58;;;;;;;15.33;10.73;;;17.30;99.90;;;;;;5027497;28;20436;-52
2023/05/11 12:32:30;;;;;;;15.57;10.70;;;17.20;99.90;;;;;;5027716;28;20194;-52